createdAt,value
2019-03-24T00:00:46.300Z,3
2019-03-24T00:01:46.397Z,3
2019-03-24T00:02:46.280Z,3
2019-03-24T00:03:46.270Z,3
2019-03-24T00:04:46.261Z,3
2019-03-24T00:05:46.255Z,3
2019-03-24T00:06:46.235Z,3
2019-03-24T00:07:46.377Z,3
2019-03-24T00:08:46.220Z,3
2019-03-24T00:09:46.204Z,3
2019-03-24T00:10:46.190Z,3
2019-03-24T00:11:46.184Z,3
2019-03-24T00:12:46.173Z,3
2019-03-24T00:13:46.212Z,3
2019-03-24T00:14:46.153Z,3
2019-03-24T00:15:46.144Z,3
2019-03-24T00:16:46.132Z,3
2019-03-24T00:17:46.120Z,3
2019-03-24T00:18:46.107Z,3
2019-03-24T00:19:46.199Z,3
2019-03-24T00:20:46.090Z,3
2019-03-24T00:21:46.077Z,3
2019-03-24T00:22:46.068Z,3
2019-03-24T00:23:46.058Z,3
2019-03-24T00:24:46.045Z,2
2019-03-24T00:25:46.189Z,2
2019-03-24T00:26:46.022Z,3
2019-03-24T00:27:46.012Z,3
2019-03-24T00:28:46.001Z,2
2019-03-24T00:29:45.987Z,2
2019-03-24T00:30:45.977Z,2
2019-03-24T00:31:46.020Z,2
2019-03-24T00:32:45.957Z,2
2019-03-24T00:33:45.949Z,2
2019-03-24T00:34:48.112Z,1
2019-03-24T00:35:45.925Z,1
2019-03-24T00:36:45.914Z,1
2019-03-24T00:37:45.954Z,1
2019-03-24T00:38:45.901Z,1
2019-03-24T00:39:45.881Z,1
2019-03-24T00:40:45.871Z,1
2019-03-24T00:41:45.860Z,1
2019-03-24T00:42:45.848Z,1
2019-03-24T00:43:46.038Z,1
2019-03-24T00:44:45.831Z,2
2019-03-24T00:45:45.823Z,2
2019-03-24T00:46:45.808Z,3
2019-03-24T00:47:45.798Z,2
2019-03-24T00:48:45.783Z,1
2019-03-24T00:49:45.877Z,2
2019-03-24T00:50:45.760Z,3
2019-03-24T00:51:45.756Z,3
2019-03-24T00:52:45.749Z,3
2019-03-24T00:53:45.735Z,3
2019-03-24T00:54:45.723Z,3
2019-03-24T00:55:45.754Z,34.
2019-03-24T00:56:45.698Z,31.
2019-03-24T00:57:45.691Z,2
2019-03-24T00:58:45.679Z,31.
2019-03-24T00:59:45.666Z,33.
2019-03-24T01:00:45.660Z,31.
2019-03-24T01:01:45.797Z,31.
2019-03-24T01:02:45.634Z,30.
2019-03-24T01:03:45.625Z,30.
2019-03-24T01:04:45.615Z,30.
2019-03-24T01:05:45.606Z,31.
2019-03-24T01:06:45.593Z,42.
2019-03-24T01:07:45.631Z,38.
2019-03-24T01:08:45.568Z,31.
2019-03-24T01:09:45.559Z,31.
2019-03-24T01:10:45.546Z,31.
2019-03-24T01:11:45.538Z,31.
2019-03-24T01:12:45.525Z,31.
2019-03-24T01:13:45.615Z,30.
2019-03-24T01:14:45.506Z,30.
2019-03-24T01:15:47.886Z,33.29
2019-03-24T01:16:45.495Z,34.40
2019-03-24T01:17:45.474Z,33.50
2019-03-24T01:18:45.463Z,34.50
2019-03-24T01:19:45.606Z,31.70
2019-03-24T01:20:45.446Z,29.29
2019-03-24T01:21:45.433Z,30.20
2019-03-24T01:22:45.426Z,26.39
2019-03-24T01:23:45.403Z,26.70
2019-03-24T01:24:45.394Z,29.39
2019-03-24T01:25:45.484Z,25.60
2019-03-24T01:26:45.374Z,21.79
2019-03-24T01:27:45.359Z,24.39
2019-03-24T01:28:45.351Z,25.39
2019-03-24T01:29:45.341Z,23.70
2019-03-24T01:30:45.332Z,25.50
2019-03-24T01:31:45.371Z,26.79
2019-03-24T01:32:45.307Z,30.29
2019-03-24T01:33:45.298Z,29.39
2019-03-24T01:34:45.287Z,24.39
2019-03-24T01:35:45.277Z,21.10
2019-03-24T01:36:45.268Z,21.10
2019-03-24T01:37:45.405Z,26.20
2019-03-24T01:38:45.244Z,24.20
2019-03-24T01:39:45.234Z,26.39
2019-03-24T01:40:45.221Z,29.50
2019-03-24T01:41:45.215Z,30.50
2019-03-24T01:42:45.201Z,31.89
2019-03-24T01:43:45.244Z,32.29
2019-03-24T01:44:45.177Z,32.40
2019-03-24T01:45:45.169Z,32.20
2019-03-24T01:46:45.162Z,32.50
2019-03-24T01:47:45.148Z,33.40
2019-03-24T01:48:45.136Z,32.79
2019-03-24T01:49:45.178Z,31.70
2019-03-24T01:50:45.117Z,32.20
2019-03-24T01:51:45.106Z,34.70
2019-03-24T01:52:45.098Z,35.70
2019-03-24T01:53:45.086Z,35.50
2019-03-24T01:54:45.071Z,37.00
2019-03-24T01:55:45.213Z,40.40
2019-03-24T01:56:45.058Z,37.20
2019-03-24T01:57:45.043Z,39.50
2019-03-24T01:58:45.034Z,38.20
2019-03-24T01:59:45.021Z,38.70
2019-03-24T02:00:45.010Z,29.70
2019-03-24T02:01:45.100Z,28.70
2019-03-24T02:02:44.989Z,29.10
2019-03-24T02:03:44.981Z,30.50
2019-03-24T02:04:44.966Z,31.79
2019-03-24T02:05:44.957Z,31.10
2019-03-24T02:06:44.938Z,28.70
2019-03-24T02:07:45.029Z,30.89
2019-03-24T02:08:44.927Z,30.39
2019-03-24T02:09:44.911Z,31.10
2019-03-24T02:10:44.905Z,31.39
2019-03-24T02:11:44.889Z,32.50
2019-03-24T02:12:44.880Z,31.10
2019-03-24T02:13:45.017Z,32.29
2019-03-24T02:14:44.859Z,32.79
2019-03-24T02:15:44.848Z,32.20
2019-03-24T02:16:44.839Z,31.10
2019-03-24T02:17:44.829Z,30.29
2019-03-24T02:18:44.817Z,36.09
2019-03-24T02:19:44.853Z,34.20
2019-03-24T02:20:44.788Z,32.40
2019-03-24T02:21:44.775Z,32.79
2019-03-24T02:22:44.770Z,34.40
2019-03-24T02:23:44.758Z,33.40
2019-03-24T02:24:44.756Z,32.50
2019-03-24T02:25:44.889Z,31.39
2019-03-24T02:26:44.722Z,32.09
2019-03-24T02:27:44.720Z,30.20
2019-03-24T02:28:44.707Z,30.20
2019-03-24T02:29:44.693Z,30.50
2019-03-24T02:30:44.681Z,31.20
2019-03-24T02:31:44.823Z,30.50
2019-03-24T02:32:44.660Z,28.50
2019-03-24T02:33:44.657Z,29.79
2019-03-24T02:34:44.637Z,31.10
2019-03-24T02:35:44.627Z,33.59
2019-03-24T02:36:44.620Z,31.60
2019-03-24T02:37:44.715Z,30.60
2019-03-24T02:38:44.598Z,30.89
2019-03-24T02:39:44.586Z,30.60
2019-03-24T02:40:44.581Z,31.10
2019-03-24T02:41:44.565Z,30.79
2019-03-24T02:42:44.563Z,30.20
2019-03-24T02:43:44.594Z,31.00
2019-03-24T02:44:44.533Z,30.10
2019-03-24T02:45:44.524Z,29.79
2019-03-24T02:46:44.521Z,29.60
2019-03-24T02:47:44.503Z,28.50
2019-03-24T02:48:44.488Z,28.79
2019-03-24T02:49:44.679Z,28.79
2019-03-24T02:50:44.471Z,30.20
2019-03-24T02:51:44.457Z,31.00
2019-03-24T02:52:44.446Z,31.10
2019-03-24T02:53:44.439Z,29.10
2019-03-24T02:54:44.423Z,29.50
2019-03-24T02:55:44.458Z,28.20
2019-03-24T02:56:44.400Z,26.10
2019-03-24T02:57:44.397Z,27.50
2019-03-24T02:58:44.383Z,27.39
2019-03-24T02:59:44.375Z,26.70
2019-03-24T03:00:44.358Z,27.10
2019-03-24T03:01:44.446Z,26.89
2019-03-24T03:02:44.342Z,28.29
2019-03-24T03:03:44.329Z,26.70
2019-03-24T03:04:44.333Z,27.89
2019-03-24T03:05:44.314Z,26.10
2019-03-24T03:06:44.298Z,26.50
2019-03-24T03:07:44.483Z,27.50
2019-03-24T03:08:44.270Z,26.70
2019-03-24T03:09:44.262Z,25.29
2019-03-24T03:10:44.250Z,27.00
2019-03-24T03:11:44.245Z,26.20
2019-03-24T03:12:44.249Z,27.29
2019-03-24T03:13:44.272Z,24.89
2019-03-24T03:14:44.205Z,24.10
2019-03-24T03:15:44.200Z,25.89
2019-03-24T03:16:44.190Z,25.60
2019-03-24T03:17:44.182Z,24.70
2019-03-24T03:18:44.169Z,23.70
2019-03-24T03:19:44.202Z,24.29
2019-03-24T03:20:44.145Z,23.79
2019-03-24T03:21:44.137Z,24.70
2019-03-24T03:22:44.129Z,24.10
2019-03-24T03:23:44.119Z,24.20
2019-03-24T03:24:44.104Z,23.50
2019-03-24T03:25:44.493Z,23.50
2019-03-24T03:26:44.083Z,23.10
2019-03-24T03:27:44.089Z,23.60
2019-03-24T03:28:44.071Z,24.29
2019-03-24T03:29:44.052Z,24.29
2019-03-24T03:30:44.044Z,29.29
2019-03-24T03:31:44.133Z,32.20
2019-03-24T03:32:44.020Z,28.70
2019-03-24T03:33:44.007Z,31.70
2019-03-24T03:34:44.003Z,33.00
2019-03-24T03:35:43.988Z,31.79
2019-03-24T03:36:43.993Z,33.70
2019-03-24T03:37:44.293Z,32.50
2019-03-24T03:38:43.959Z,31.70
2019-03-24T03:39:43.948Z,32.50
2019-03-24T03:40:43.934Z,31.29
2019-03-24T03:41:43.924Z,31.79
2019-03-24T03:42:43.915Z,32.59
2019-03-24T03:43:44.152Z,33.09
2019-03-24T03:44:43.893Z,32.90
2019-03-24T03:45:43.876Z,34.79
2019-03-24T03:46:52.348Z,35.00
2019-03-24T03:47:44.953Z,33.59
2019-03-24T03:48:43.845Z,34.70
2019-03-24T03:49:43.886Z,34.29
2019-03-24T03:50:43.824Z,32.29
2019-03-24T03:51:43.814Z,32.59
2019-03-24T03:52:43.803Z,31.60
2019-03-24T03:53:43.790Z,31.89
2019-03-24T03:54:43.781Z,28.89
2019-03-24T03:55:43.878Z,27.10
2019-03-24T03:56:43.774Z,28.70
2019-03-24T03:57:43.763Z,29.29
2019-03-24T03:58:43.738Z,26.70
2019-03-24T03:59:43.729Z,27.89
2019-03-24T04:00:43.724Z,28.79
2019-03-24T04:01:43.855Z,28.39
2019-03-24T04:02:43.707Z,28.00
2019-03-24T04:03:43.681Z,26.39
2019-03-24T04:04:43.678Z,23.50
2019-03-24T04:05:43.668Z,25.29
2019-03-24T04:06:43.654Z,26.20
2019-03-24T04:07:43.743Z,22.20
2019-03-24T04:08:43.630Z,20.39
2019-03-24T04:09:43.622Z,20.10
2019-03-24T04:10:43.613Z,17.39
2019-03-24T04:11:43.610Z,12.80
2019-03-24T04:12:43.597Z,13.39
2019-03-24T04:13:43.628Z,12.50
2019-03-24T04:14:43.577Z,14.30
2019-03-24T04:15:43.557Z,14.30
2019-03-24T04:16:43.548Z,14.50
2019-03-24T04:17:43.540Z,13.80
2019-03-24T04:18:43.533Z,14.80
2019-03-24T04:19:43.674Z,14.89
2019-03-24T04:20:43.520Z,15.30
2019-03-24T04:21:43.497Z,16.10
2019-03-24T04:22:43.480Z,15.00
2019-03-24T04:23:43.478Z,16.50
2019-03-24T04:24:43.477Z,15.60
2019-03-24T04:25:43.505Z,16.60
2019-03-24T04:26:43.446Z,16.50
2019-03-24T04:27:43.436Z,15.50
2019-03-24T04:28:43.422Z,16.20
2019-03-24T04:29:43.415Z,17.60
2019-03-24T04:30:43.479Z,20.10
2019-03-24T04:31:43.443Z,18.29
2019-03-24T04:32:43.380Z,19.79
2019-03-24T04:33:43.371Z,20.20
2019-03-24T04:34:43.357Z,21.60
2019-03-24T04:35:43.349Z,22.10
2019-03-24T04:36:43.336Z,22.20
2019-03-24T04:37:43.536Z,21.60
2019-03-24T04:38:43.313Z,20.20
2019-03-24T04:39:43.306Z,20.20
2019-03-24T04:40:43.294Z,19.60
2019-03-24T04:41:43.291Z,20.10
2019-03-24T04:42:43.275Z,20.10
2019-03-24T04:43:43.313Z,19.39
2019-03-24T04:44:43.247Z,20.29
2019-03-24T04:45:43.238Z,19.79
2019-03-24T04:46:43.232Z,20.20
2019-03-24T04:47:43.221Z,19.50
2019-03-24T04:48:43.209Z,19.10
2019-03-24T04:49:43.299Z,20.29
2019-03-24T04:50:43.188Z,18.70
2019-03-24T04:51:43.181Z,17.89
2019-03-24T04:52:43.168Z,17.89
2019-03-24T04:53:43.153Z,18.10
2019-03-24T04:54:43.147Z,18.39
2019-03-24T04:55:43.334Z,17.39
2019-03-24T04:56:43.124Z,16.20
2019-03-24T04:57:43.121Z,17.10
2019-03-24T04:58:43.101Z,16.20
2019-03-24T04:59:43.091Z,15.19
2019-03-24T05:00:43.073Z,15.19
2019-03-24T05:01:43.119Z,15.69
2019-03-24T05:02:43.061Z,15.39
2019-03-24T05:03:43.050Z,14.69
2019-03-24T05:04:43.035Z,14.19
2019-03-24T05:05:43.031Z,13.00
2019-03-24T05:06:43.016Z,12.30
2019-03-24T05:07:43.055Z,11.89
2019-03-24T05:08:42.995Z,11.19
2019-03-24T05:09:42.982Z,9.89
2019-03-24T05:10:42.972Z,9.39
2019-03-24T05:11:42.961Z,9.80
2019-03-24T05:12:42.949Z,8.80
2019-03-24T05:13:43.090Z,8.89
2019-03-24T05:14:42.931Z,8.19
2019-03-24T05:15:42.927Z,7.19
2019-03-24T05:16:42.909Z,9.80
2019-03-24T05:17:42.900Z,19.50
2019-03-24T05:18:42.888Z,10.69
2019-03-24T05:19:42.925Z,12.10
2019-03-24T05:20:42.866Z,8.89
2019-03-24T05:21:42.857Z,8.80
2019-03-24T05:22:42.847Z,7.69
2019-03-24T05:23:42.831Z,7.59
2019-03-24T05:24:42.817Z,7.30
2019-03-24T05:25:42.915Z,6.69
2019-03-24T05:26:42.809Z,7.80
2019-03-24T05:27:42.792Z,7.59
2019-03-24T05:28:42.778Z,7.50
2019-03-24T05:29:42.768Z,7.09
2019-03-24T05:30:42.799Z,8.00
2019-03-24T05:31:42.893Z,7.30
2019-03-24T05:32:42.736Z,7.59
2019-03-24T05:33:42.729Z,8.60
2019-03-24T05:34:42.715Z,8.80
2019-03-24T05:35:42.709Z,8.69
2019-03-24T05:36:42.705Z,7.59
2019-03-24T05:37:42.730Z,9.00
2019-03-24T05:38:42.673Z,9.60
2019-03-24T05:39:42.666Z,11.10
2019-03-24T05:40:42.655Z,12.60
2019-03-24T05:41:42.646Z,13.50
2019-03-24T05:42:42.640Z,12.39
2019-03-24T05:43:42.719Z,13.39
2019-03-24T05:44:42.619Z,12.69
2019-03-24T05:45:42.606Z,13.39
2019-03-24T05:46:42.593Z,13.19
2019-03-24T05:47:42.577Z,13.39
2019-03-24T05:48:42.572Z,14.00
2019-03-24T05:49:42.713Z,13.00
2019-03-24T05:50:42.547Z,12.80
2019-03-24T05:51:42.533Z,12.69
2019-03-24T05:52:42.525Z,13.10
2019-03-24T05:53:42.515Z,13.10
2019-03-24T05:54:42.503Z,13.30
2019-03-24T05:55:42.594Z,13.10
2019-03-24T05:56:42.486Z,12.60
2019-03-24T05:57:42.472Z,11.69
2019-03-24T05:58:42.462Z,13.19
2019-03-24T05:59:42.455Z,12.80
2019-03-24T06:00:42.440Z,12.19
2019-03-24T06:01:42.477Z,13.19
2019-03-24T06:02:42.421Z,11.39
2019-03-24T06:03:42.406Z,12.50
2019-03-24T06:04:42.402Z,12.50
2019-03-24T06:05:42.389Z,12.19
2019-03-24T06:06:42.373Z,12.39
2019-03-24T06:07:42.519Z,11.89
2019-03-24T06:08:42.361Z,11.60
2019-03-24T06:09:42.345Z,12.60
2019-03-24T06:10:42.337Z,12.80
2019-03-24T06:11:42.324Z,11.80
2019-03-24T06:12:42.311Z,12.39
2019-03-24T06:13:42.353Z,13.19
2019-03-24T06:14:42.289Z,12.60
2019-03-24T06:15:42.278Z,11.19
2019-03-24T06:16:42.267Z,11.69
2019-03-24T06:17:47.713Z,11.39
2019-03-24T06:18:42.250Z,11.19
2019-03-24T06:19:42.282Z,12.10
2019-03-24T06:20:42.226Z,11.10
2019-03-24T06:21:42.213Z,11.39
2019-03-24T06:22:42.206Z,11.60
2019-03-24T06:23:42.192Z,11.10
2019-03-24T06:24:42.187Z,10.80
2019-03-24T06:25:42.325Z,11.30
2019-03-24T06:26:42.158Z,10.89
2019-03-24T06:27:42.152Z,10.39
2019-03-24T06:28:42.139Z,10.00
2019-03-24T06:29:42.128Z,10.60
2019-03-24T06:30:42.117Z,11.80
2019-03-24T06:31:42.154Z,11.69
2019-03-24T06:32:42.095Z,11.19
2019-03-24T06:33:42.087Z,10.00
2019-03-24T06:34:42.074Z,11.00
2019-03-24T06:35:42.056Z,9.89
2019-03-24T06:36:42.053Z,9.80
2019-03-24T06:37:42.094Z,10.39
2019-03-24T06:38:42.023Z,10.10
2019-03-24T06:39:42.019Z,9.50
2019-03-24T06:40:42.005Z,10.89
2019-03-24T06:41:41.997Z,10.69
2019-03-24T06:42:41.982Z,10.30
2019-03-24T06:43:42.129Z,9.50
2019-03-24T06:44:41.964Z,11.00
2019-03-24T06:45:41.949Z,10.69
2019-03-24T06:46:41.951Z,10.00
2019-03-24T06:47:41.928Z,10.50
2019-03-24T06:48:41.915Z,10.00
2019-03-24T06:49:41.962Z,9.19
2019-03-24T06:50:41.899Z,8.89
2019-03-24T06:51:41.880Z,8.89
2019-03-24T06:52:41.874Z,9.50
2019-03-24T06:53:41.864Z,9.30
2019-03-24T06:54:41.851Z,9.80
2019-03-24T06:55:41.936Z,9.50
2019-03-24T06:56:41.828Z,9.19
2019-03-24T06:57:41.818Z,8.39
2019-03-24T06:58:41.802Z,9.00
2019-03-24T06:59:41.797Z,9.10
2019-03-24T07:00:41.781Z,8.10
2019-03-24T07:01:41.922Z,8.50
2019-03-24T07:02:41.767Z,8.50
2019-03-24T07:03:41.759Z,8.19
2019-03-24T07:04:41.740Z,8.10
2019-03-24T07:05:41.731Z,7.69
2019-03-24T07:06:41.721Z,8.10
2019-03-24T07:07:41.760Z,8.10
2019-03-24T07:08:41.697Z,7.50
2019-03-24T07:09:41.685Z,6.59
2019-03-24T07:10:41.671Z,7.19
2019-03-24T07:11:41.658Z,7.69
2019-03-24T07:12:41.650Z,7.40
2019-03-24T07:13:41.741Z,6.09
2019-03-24T07:14:41.632Z,5.90
2019-03-24T07:15:41.622Z,6.09
2019-03-24T07:16:41.608Z,6.09
2019-03-24T07:17:41.594Z,6.30
2019-03-24T07:18:41.585Z,5.69
2019-03-24T07:19:41.729Z,4.90
2019-03-24T07:20:41.565Z,6.00
2019-03-24T07:21:41.549Z,5.40
2019-03-24T07:22:41.537Z,5.19
2019-03-24T07:23:41.526Z,6.19
2019-03-24T07:24:41.521Z,13.60
2019-03-24T07:25:41.557Z,6.90
2019-03-24T07:26:41.497Z,5.30
2019-03-24T07:27:41.485Z,5.59
2019-03-24T07:28:41.472Z,4.90
2019-03-24T07:29:41.458Z,5.30
2019-03-24T07:30:41.484Z,5.50
2019-03-24T07:31:41.490Z,2.90
2019-03-24T07:32:41.425Z,3.59
2019-03-24T07:33:41.419Z,3.50
2019-03-24T07:34:41.411Z,4.00
2019-03-24T07:35:41.400Z,3.29
2019-03-24T07:36:41.426Z,4.00
2019-03-24T07:37:41.584Z,1.70
2019-03-24T07:38:41.365Z,3.09
2019-03-24T07:39:41.351Z,2.70
2019-03-24T07:40:41.351Z,2.09
2019-03-24T07:41:41.337Z,2.20
2019-03-24T07:42:41.321Z,1.79
2019-03-24T07:43:41.364Z,1.90
2019-03-24T07:44:41.302Z,1.90
2019-03-24T07:45:41.311Z,2.40
2019-03-24T07:46:41.276Z,2.59
2019-03-24T07:47:41.270Z,2.40
2019-03-24T07:48:41.252Z,2.70
2019-03-24T07:49:41.300Z,2.70
2019-03-24T07:50:41.232Z,2.70
2019-03-24T07:51:41.223Z,2.70
2019-03-24T07:52:41.211Z,3.20
2019-03-24T07:53:41.203Z,3.50
2019-03-24T07:54:41.191Z,3.29
2019-03-24T07:55:41.332Z,3.79
2019-03-24T07:56:41.174Z,3.20
2019-03-24T07:57:41.162Z,2.50
2019-03-24T07:58:41.149Z,2.29
2019-03-24T07:59:41.140Z,2.09
2019-03-24T08:00:41.129Z,2.09
2019-03-24T08:01:41.216Z,2.09
2019-03-24T08:02:50.667Z,2.09
2019-03-24T08:03:42.192Z,2.20
2019-03-24T08:04:41.081Z,2.00
2019-03-24T08:05:41.078Z,2.40
2019-03-24T08:06:41.062Z,2.40
2019-03-24T08:07:41.097Z,2.90
2019-03-24T08:08:44.376Z,2.70
2019-03-24T08:09:41.032Z,2.50
2019-03-24T08:10:41.026Z,2.59
2019-03-24T08:11:41.012Z,2.59
2019-03-24T08:12:41.043Z,2.90
2019-03-24T08:13:52.943Z,3.00
2019-03-24T08:14:42.077Z,4.30
2019-03-24T08:15:40.965Z,4.90
2019-03-24T08:16:40.952Z,4.40
2019-03-24T08:17:40.943Z,4.69
2019-03-24T08:18:40.936Z,5.19
2019-03-24T08:19:40.974Z,4.50
2019-03-24T08:20:40.909Z,4.69
2019-03-24T08:21:40.905Z,4.69
2019-03-24T08:22:40.900Z,4.69
2019-03-24T08:23:40.884Z,4.40
2019-03-24T08:24:40.871Z,4.30
2019-03-24T08:25:40.912Z,4.69
2019-03-24T08:26:40.852Z,4.00
2019-03-24T08:27:40.839Z,4.50
2019-03-24T08:28:40.831Z,4.19
2019-03-24T08:29:40.817Z,4.30
2019-03-24T08:30:40.808Z,4.30
2019-03-24T08:31:40.998Z,4.09
2019-03-24T08:32:40.790Z,4.19
2019-03-24T08:33:40.775Z,4.30
2019-03-24T08:34:40.766Z,4.09
2019-03-24T08:35:40.755Z,4.00
2019-03-24T08:36:40.746Z,4.09
2019-03-24T08:37:40.787Z,4.40
2019-03-24T08:38:40.727Z,4.09
2019-03-24T08:39:40.714Z,4.40
2019-03-24T08:40:40.705Z,4.30
2019-03-24T08:41:40.696Z,3.90
2019-03-24T08:42:40.680Z,3.59
2019-03-24T08:43:40.773Z,3.59
2019-03-24T08:44:40.660Z,3.90
2019-03-24T08:45:40.655Z,4.00
2019-03-24T08:46:40.640Z,3.90
2019-03-24T08:47:40.626Z,3.90
2019-03-24T08:48:41.354Z,3.50
2019-03-24T08:49:40.758Z,3.50
2019-03-24T08:50:40.594Z,3.79
2019-03-24T08:51:40.586Z,3.50
2019-03-24T08:52:40.577Z,3.70
2019-03-24T08:53:40.564Z,3.59
2019-03-24T08:54:40.558Z,3.70
2019-03-24T08:55:40.597Z,3.50
2019-03-24T08:56:40.533Z,3.79
2019-03-24T08:57:40.529Z,3.59
2019-03-24T08:58:40.517Z,3.40
2019-03-24T08:59:40.508Z,3.50
2019-03-24T09:00:40.495Z,3.70
2019-03-24T09:01:40.586Z,3.59
2019-03-24T09:02:40.472Z,3.90
2019-03-24T09:03:40.458Z,3.90
2019-03-24T09:04:40.454Z,3.70
2019-03-24T09:05:40.447Z,3.40
2019-03-24T09:06:40.432Z,3.50
2019-03-24T09:07:40.622Z,3.70
2019-03-24T09:08:40.411Z,3.50
2019-03-24T09:09:40.400Z,3.90
2019-03-24T09:10:40.387Z,3.59
2019-03-24T09:11:40.384Z,3.70
2019-03-24T09:12:40.368Z,4.00
2019-03-24T09:13:40.408Z,3.50
2019-03-24T09:14:40.348Z,3.09
2019-03-24T09:15:40.336Z,3.90
2019-03-24T09:16:40.325Z,3.40
2019-03-24T09:17:41.380Z,3.40
2019-03-24T09:18:51.751Z,3.50
2019-03-24T09:20:05.167Z,4.19
2019-03-24T09:21:05.153Z,4.19
2019-03-24T09:22:05.149Z,3.90
2019-03-24T09:23:05.128Z,3.90
2019-03-24T09:24:05.118Z,3.50
2019-03-24T09:25:05.255Z,3.59
2019-03-24T09:26:05.100Z,3.70
2019-03-24T09:27:05.093Z,3.90
2019-03-24T09:28:05.078Z,3.29
2019-03-24T09:29:05.075Z,3.50
2019-03-24T09:30:05.060Z,3.50
2019-03-24T09:31:05.144Z,3.20
2019-03-24T09:32:05.037Z,3.29
2019-03-24T09:33:05.028Z,3.59
2019-03-24T09:34:05.016Z,3.40
2019-03-24T09:35:05.004Z,3.50
2019-03-24T09:36:04.993Z,3.50
2019-03-24T09:37:05.030Z,3.50
2019-03-24T09:38:04.981Z,3.29
2019-03-24T09:39:04.964Z,3.40
2019-03-24T09:40:04.959Z,3.59
2019-03-24T09:41:04.950Z,3.59
2019-03-24T09:42:04.924Z,3.09
2019-03-24T09:43:05.126Z,3.59
2019-03-24T09:44:04.912Z,3.40
2019-03-24T09:45:04.897Z,3.09
2019-03-24T09:46:04.881Z,3.09
2019-03-24T09:47:04.872Z,11.30
2019-03-24T09:48:04.872Z,4.40
2019-03-24T09:49:04.901Z,3.09
2019-03-24T09:50:04.852Z,3.50
2019-03-24T09:51:04.831Z,3.59
2019-03-24T09:52:04.816Z,3.90
2019-03-24T09:53:04.807Z,3.59
2019-03-24T09:54:04.803Z,3.29
2019-03-24T09:55:04.889Z,3.29
2019-03-24T09:56:04.779Z,3.09
2019-03-24T09:57:04.766Z,3.20
2019-03-24T09:58:04.775Z,3.40
2019-03-24T09:59:04.743Z,3.59
2019-03-24T10:00:04.736Z,6.00
2019-03-24T10:01:04.876Z,4.90
2019-03-24T10:02:04.710Z,3.50
2019-03-24T10:03:04.704Z,2.90
2019-03-24T10:04:04.692Z,3.09
2019-03-24T10:05:04.677Z,3.20
2019-03-24T10:06:04.673Z,3.09
2019-03-24T10:07:04.713Z,3.00
2019-03-24T10:08:04.648Z,3.20
2019-03-24T10:09:04.638Z,5.50
2019-03-24T10:10:04.624Z,14.50
2019-03-24T10:11:04.614Z,11.50
2019-03-24T10:12:04.600Z,2.29
2019-03-24T10:13:04.691Z,2.20
2019-03-24T10:14:04.595Z,2.29
2019-03-24T10:15:04.568Z,2.20
2019-03-24T10:16:04.553Z,2.29
2019-03-24T10:17:04.551Z,2.50
2019-03-24T10:18:04.548Z,2.59
2019-03-24T10:19:13.502Z,2.50
2019-03-24T10:20:29.334Z,3.00
2019-03-24T10:21:29.325Z,2.90
2019-03-24T10:22:29.313Z,3.00
2019-03-24T10:23:29.301Z,3.00
2019-03-24T10:24:29.392Z,3.20
2019-03-24T10:25:29.291Z,2.79
2019-03-24T10:26:29.269Z,2.90
2019-03-24T10:27:29.256Z,2.90
2019-03-24T10:28:29.255Z,3.09
2019-03-24T10:29:29.238Z,2.70
2019-03-24T10:30:29.325Z,3.00
2019-03-24T10:31:29.218Z,3.29
2019-03-24T10:32:29.211Z,3.29
2019-03-24T10:33:29.196Z,2.70
2019-03-24T10:34:29.180Z,2.70
2019-03-24T10:35:29.178Z,3.09
2019-03-24T10:36:29.410Z,2.90
2019-03-24T10:37:29.159Z,3.50
2019-03-24T10:38:29.142Z,2.40
2019-03-24T10:39:29.130Z,2.79
2019-03-24T10:40:29.244Z,2.70
2019-03-24T10:41:29.114Z,2.79
2019-03-24T10:42:29.154Z,2.79
2019-03-24T10:43:29.090Z,2.79
2019-03-24T10:44:29.084Z,2.90
2019-03-24T10:45:29.071Z,2.59
2019-03-24T10:46:29.056Z,3.09
2019-03-24T10:47:29.074Z,3.00
2019-03-24T10:48:33.714Z,4.90
2019-03-24T10:49:29.028Z,4.19
2019-03-24T10:50:29.017Z,3.50
2019-03-24T10:51:29.009Z,3.29
2019-03-24T10:52:28.994Z,4.90
2019-03-24T10:53:28.991Z,3.59
2019-03-24T10:54:29.178Z,7.69
2019-03-24T10:55:28.968Z,6.59
2019-03-24T10:56:28.954Z,5.80
2019-03-24T10:57:28.947Z,3.70
2019-03-24T10:58:28.937Z,4.80
2019-03-24T10:59:28.924Z,4.40
2019-03-24T11:00:29.020Z,3.70
2019-03-24T11:01:28.904Z,3.40
2019-03-24T11:02:28.896Z,3.09
2019-03-24T11:03:28.883Z,3.20
2019-03-24T11:04:28.878Z,3.29
2019-03-24T11:05:28.863Z,3.29
2019-03-24T11:06:28.909Z,3.09
2019-03-24T11:07:28.843Z,3.00
2019-03-24T11:08:28.834Z,3.20
2019-03-24T11:09:28.821Z,2.79
2019-03-24T11:10:28.824Z,3.09
2019-03-24T11:11:28.805Z,3.20
2019-03-24T11:12:28.941Z,18.00
2019-03-24T11:13:28.784Z,27.70
2019-03-24T11:14:28.770Z,10.89
2019-03-24T11:15:28.767Z,4.09
2019-03-24T11:16:28.751Z,3.09
2019-03-24T11:17:28.740Z,3.50
2019-03-24T11:18:28.774Z,3.09
2019-03-24T11:19:35.588Z,3.40
2019-03-24T11:20:53.532Z,2.90
2019-03-24T11:21:53.517Z,3.29
2019-03-24T11:22:53.512Z,3.09
2019-03-24T11:23:53.547Z,3.20
2019-03-24T11:24:53.499Z,2.90
2019-03-24T11:25:53.479Z,2.70
2019-03-24T11:26:53.464Z,2.79
2019-03-24T11:27:53.457Z,2.79
2019-03-24T11:28:53.445Z,2.79
2019-03-24T11:29:53.636Z,3.29
2019-03-24T11:30:53.432Z,4.69
2019-03-24T11:31:53.418Z,3.40
2019-03-24T11:32:53.405Z,3.00
2019-03-24T11:33:53.394Z,3.59
2019-03-24T11:34:53.389Z,2.59
2019-03-24T11:35:53.423Z,2.50
2019-03-24T11:36:53.358Z,2.40
2019-03-24T11:37:53.353Z,2.29
2019-03-24T11:38:53.340Z,2.50
2019-03-24T11:39:53.325Z,2.59
2019-03-24T11:40:53.322Z,3.40
2019-03-24T11:41:53.410Z,2.90
2019-03-24T11:42:53.297Z,3.20
2019-03-24T11:43:53.294Z,3.29
2019-03-24T11:44:53.281Z,2.79
2019-03-24T11:45:53.270Z,2.90
2019-03-24T11:46:53.268Z,2.70
2019-03-24T11:47:53.397Z,3.00
2019-03-24T11:48:53.235Z,2.70
2019-03-24T11:49:53.230Z,3.20
2019-03-24T11:50:53.219Z,2.70
2019-03-24T11:51:53.206Z,2.79
2019-03-24T11:52:53.198Z,3.00
2019-03-24T11:53:53.236Z,3.09
2019-03-24T11:54:53.176Z,3.29
2019-03-24T11:55:53.165Z,2.59
2019-03-24T11:56:53.150Z,2.70
2019-03-24T11:57:53.145Z,2.70
2019-03-24T11:58:53.292Z,2.59
2019-03-24T11:59:53.227Z,3.00
2019-03-24T12:00:53.121Z,3.00
2019-03-24T12:01:53.103Z,3.20
2019-03-24T12:02:53.098Z,3.00
2019-03-24T12:03:53.084Z,2.90
2019-03-24T12:04:53.078Z,4.80
2019-03-24T12:05:53.209Z,5.19
2019-03-24T12:06:53.054Z,3.59
2019-03-24T12:07:53.049Z,3.59
2019-03-24T12:08:53.031Z,3.20
2019-03-24T12:09:53.022Z,2.70
2019-03-24T12:10:53.010Z,2.59
2019-03-24T12:11:53.105Z,2.70
2019-03-24T12:12:52.993Z,2.40
2019-03-24T12:13:52.981Z,2.70
2019-03-24T12:14:52.972Z,2.79
2019-03-24T12:15:52.952Z,3.00
2019-03-24T12:16:52.949Z,2.59
2019-03-24T12:17:52.988Z,2.79
2019-03-24T12:18:52.922Z,2.70
2019-03-24T12:19:56.973Z,2.59
2019-03-24T12:20:52.911Z,2.59
2019-03-24T12:21:52.896Z,2.40
2019-03-24T12:22:52.892Z,2.40
2019-03-24T12:23:53.082Z,2.70
2019-03-24T12:24:52.869Z,2.50
2019-03-24T12:25:52.858Z,2.79
2019-03-24T12:26:52.842Z,3.59
2019-03-24T12:27:52.840Z,2.50
2019-03-24T12:28:52.821Z,2.40
2019-03-24T12:29:52.952Z,2.29
2019-03-24T12:30:52.802Z,2.50
2019-03-24T12:31:52.791Z,2.59
2019-03-24T12:32:52.781Z,2.79
2019-03-24T12:33:52.776Z,2.59
2019-03-24T12:34:52.760Z,3.20
2019-03-24T12:35:52.798Z,2.59
2019-03-24T12:36:52.741Z,2.79
2019-03-24T12:37:52.733Z,2.59
2019-03-24T12:38:52.721Z,2.40
2019-03-24T12:39:52.711Z,2.59
2019-03-24T12:40:52.702Z,2.59
2019-03-24T12:41:52.837Z,2.29
2019-03-24T12:42:52.671Z,2.29
2019-03-24T12:43:52.664Z,2.20
2019-03-24T12:44:52.654Z,2.40
2019-03-24T12:45:52.641Z,2.70
2019-03-24T12:46:52.628Z,2.40
2019-03-24T12:47:52.675Z,4.30
2019-03-24T12:48:52.614Z,8.39
2019-03-24T12:49:52.606Z,10.39
2019-03-24T12:50:52.591Z,3.90
2019-03-24T12:51:52.582Z,3.50
2019-03-24T12:52:52.570Z,3.09
2019-03-24T12:53:52.654Z,2.90
2019-03-24T12:54:52.554Z,2.50
2019-03-24T12:55:52.541Z,2.90
2019-03-24T12:56:52.577Z,2.50
2019-03-24T12:57:52.517Z,2.40
2019-03-24T12:58:52.512Z,2.79
2019-03-24T12:59:52.701Z,2.70
2019-03-24T13:00:52.484Z,2.79
2019-03-24T13:01:52.948Z,2.29
2019-03-24T13:02:52.470Z,2.50
2019-03-24T13:03:52.463Z,2.40
2019-03-24T13:04:52.442Z,2.70
2019-03-24T13:05:52.489Z,2.50
2019-03-24T13:06:52.426Z,2.50
2019-03-24T13:07:52.421Z,2.50
2019-03-24T13:08:52.400Z,2.50
2019-03-24T13:09:52.398Z,3.00
2019-03-24T13:10:52.387Z,2.59
2019-03-24T13:11:52.426Z,2.50
2019-03-24T13:12:52.360Z,12.19
2019-03-24T13:13:52.355Z,26.39
2019-03-24T13:14:52.591Z,17.29
2019-03-24T13:15:52.334Z,7.00